sensor_id;sensor_type;location;lat;lon;timestamp;temperature;humidity
70820;DHT22;58439;51.046;13.692;2023-03-17T00:00:44;4.80;49.40
70820;DHT22;58439;51.046;13.692;2023-03-17T00:03:24;4.80;49.30
70820;DHT22;58439;51.046;13.692;2023-03-17T00:05:56;4.80;49.10
70820;DHT22;58439;51.046;13.692;2023-03-17T00:08:28;4.70;48.90
70820;DHT22;58439;51.046;13.692;2023-03-17T00:10:57;4.70;48.90
70820;DHT22;58439;51.046;13.692;2023-03-17T00:13:26;4.80;48.90
70820;DHT22;58439;51.046;13.692;2023-03-17T00:16:05;4.70;48.90
70820;DHT22;58439;51.046;13.692;2023-03-17T00:18:36;4.70;48.70
70820;DHT22;58439;51.046;13.692;2023-03-17T00:21:04;4.70;48.70
70820;DHT22;58439;51.046;13.692;2023-03-17T00:23:31;4.70;48.40
70820;DHT22;58439;51.046;13.692;2023-03-17T00:25:59;4.80;48.20
70820;DHT22;58439;51.046;13.692;2023-03-17T00:28:26;4.80;48.00
70820;DHT22;58439;51.046;13.692;2023-03-17T00:30:57;4.80;47.80
70820;DHT22;58439;51.046;13.692;2023-03-17T00:33:28;4.80;47.60
70820;DHT22;58439;51.046;13.692;2023-03-17T00:35:59;4.90;47.40
70820;DHT22;58439;51.046;13.692;2023-03-17T00:38:27;4.80;47.40
70820;DHT22;58439;51.046;13.692;2023-03-17T00:40:57;4.80;47.50
70820;DHT22;58439;51.046;13.692;2023-03-17T00:43:24;4.80;47.40
70820;DHT22;58439;51.046;13.692;2023-03-17T00:45:52;4.80;47.30
70820;DHT22;58439;51.046;13.692;2023-03-17T00:48:23;4.80;47.40
70820;DHT22;58439;51.046;13.692;2023-03-17T00:50:51;4.80;47.30
70820;DHT22;58439;51.046;13.692;2023-03-17T00:53:19;4.80;47.30
70820;DHT22;58439;51.046;13.692;2023-03-17T00:55:49;4.80;47.30
70820;DHT22;58439;51.046;13.692;2023-03-17T00:58:37;4.70;47.40
70820;DHT22;58439;51.046;13.692;2023-03-17T01:01:04;4.70;47.60
70820;DHT22;58439;51.046;13.692;2023-03-17T01:03:31;4.70;47.50
70820;DHT22;58439;51.046;13.692;2023-03-17T01:06:00;4.70;47.40
70820;DHT22;58439;51.046;13.692;2023-03-17T01:08:31;4.70;47.40
70820;DHT22;58439;51.046;13.692;2023-03-17T01:11:00;4.70;47.40
70820;DHT22;58439;51.046;13.692;2023-03-17T01:13:32;4.60;47.30
70820;DHT22;58439;51.046;13.692;2023-03-17T01:16:10;4.60;47.30
70820;DHT22;58439;51.046;13.692;2023-03-17T01:18:39;4.60;47.40
70820;DHT22;58439;51.046;13.692;2023-03-17T01:21:09;4.60;47.40
70820;DHT22;58439;51.046;13.692;2023-03-17T01:23:40;4.60;47.50
70820;DHT22;58439;51.046;13.692;2023-03-17T01:26:08;4.60;47.60
70820;DHT22;58439;51.046;13.692;2023-03-17T01:28:35;4.60;47.50
70820;DHT22;58439;51.046;13.692;2023-03-17T01:31:05;4.60;47.50
70820;DHT22;58439;51.046;13.692;2023-03-17T01:33:41;4.60;47.50
70820;DHT22;58439;51.046;13.692;2023-03-17T01:36:09;4.50;47.50
70820;DHT22;58439;51.046;13.692;2023-03-17T01:38:37;4.50;47.60
70820;DHT22;58439;51.046;13.692;2023-03-17T01:41:07;4.40;47.60
70820;DHT22;58439;51.046;13.692;2023-03-17T01:44:09;4.40;47.60
70820;DHT22;58439;51.046;13.692;2023-03-17T01:46:42;4.40;47.50
70820;DHT22;58439;51.046;13.692;2023-03-17T01:50:08;4.40;47.60
70820;DHT22;58439;51.046;13.692;2023-03-17T01:52:37;4.30;47.70
70820;DHT22;58439;51.046;13.692;2023-03-17T01:55:11;4.30;47.60
70820;DHT22;58439;51.046;13.692;2023-03-17T01:57:49;4.30;47.30
70820;DHT22;58439;51.046;13.692;2023-03-17T02:00:23;4.30;47.20
70820;DHT22;58439;51.046;13.692;2023-03-17T02:03:00;4.40;47.30
70820;DHT22;58439;51.046;13.692;2023-03-17T02:05:28;4.30;47.10
70820;DHT22;58439;51.046;13.692;2023-03-17T02:08:20;4.30;47.20
70820;DHT22;58439;51.046;13.692;2023-03-17T02:10:47;4.30;47.10
70820;DHT22;58439;51.046;13.692;2023-03-17T02:13:42;4.30;47.00
70820;DHT22;58439;51.046;13.692;2023-03-17T02:16:19;4.30;47.10
70820;DHT22;58439;51.046;13.692;2023-03-17T02:18:47;4.30;47.10
70820;DHT22;58439;51.046;13.692;2023-03-17T02:21:28;4.30;47.00
70820;DHT22;58439;51.046;13.692;2023-03-17T02:23:58;4.30;48.00
70820;DHT22;58439;51.046;13.692;2023-03-17T02:26:54;4.30;46.70
70820;DHT22;58439;51.046;13.692;2023-03-17T02:29:26;4.40;46.40
70820;DHT22;58439;51.046;13.692;2023-03-17T02:32:07;4.40;46.00
70820;DHT22;58439;51.046;13.692;2023-03-17T02:34:39;4.50;47.10
70820;DHT22;58439;51.046;13.692;2023-03-17T02:37:09;4.50;45.60
70820;DHT22;58439;51.046;13.692;2023-03-17T02:39:40;4.60;45.30
70820;DHT22;58439;51.046;13.692;2023-03-17T02:42:10;4.70;46.40
70820;DHT22;58439;51.046;13.692;2023-03-17T02:44:39;4.70;45.20
70820;DHT22;58439;51.046;13.692;2023-03-17T02:47:11;4.70;44.90
70820;DHT22;58439;51.046;13.692;2023-03-17T02:49:40;4.80;44.60
70820;DHT22;58439;51.046;13.692;2023-03-17T02:52:11;4.80;44.30
70820;DHT22;58439;51.046;13.692;2023-03-17T02:54:46;4.80;44.10
70820;DHT22;58439;51.046;13.692;2023-03-17T02:57:14;4.80;44.20
70820;DHT22;58439;51.046;13.692;2023-03-17T02:59:44;4.80;44.30
70820;DHT22;58439;51.046;13.692;2023-03-17T03:02:12;4.80;44.20
70820;DHT22;58439;51.046;13.692;2023-03-17T03:04:40;4.80;44.10
70820;DHT22;58439;51.046;13.692;2023-03-17T03:07:12;4.80;44.10
70820;DHT22;58439;51.046;13.692;2023-03-17T03:09:40;4.80;44.20
70820;DHT22;58439;51.046;13.692;2023-03-17T03:12:08;4.80;44.10
70820;DHT22;58439;51.046;13.692;2023-03-17T03:14:37;4.80;44.20
70820;DHT22;58439;51.046;13.692;2023-03-17T03:17:05;4.80;44.10
70820;DHT22;58439;51.046;13.692;2023-03-17T03:19:33;4.70;44.10
70820;DHT22;58439;51.046;13.692;2023-03-17T03:22:00;4.70;43.90
70820;DHT22;58439;51.046;13.692;2023-03-17T03:24:46;4.70;43.80
70820;DHT22;58439;51.046;13.692;2023-03-17T03:27:41;4.80;43.90
70820;DHT22;58439;51.046;13.692;2023-03-17T03:30:09;4.80;43.50
70820;DHT22;58439;51.046;13.692;2023-03-17T03:32:37;4.80;43.40
70820;DHT22;58439;51.046;13.692;2023-03-17T03:35:05;4.80;43.20
70820;DHT22;58439;51.046;13.692;2023-03-17T03:37:34;4.90;43.30
70820;DHT22;58439;51.046;13.692;2023-03-17T03:40:05;4.90;43.20
70820;DHT22;58439;51.046;13.692;2023-03-17T03:42:33;4.90;43.10
70820;DHT22;58439;51.046;13.692;2023-03-17T03:45:01;4.90;43.20
70820;DHT22;58439;51.046;13.692;2023-03-17T03:47:28;4.90;43.10
70820;DHT22;58439;51.046;13.692;2023-03-17T03:49:56;4.90;43.10
70820;DHT22;58439;51.046;13.692;2023-03-17T03:52:43;4.80;43.20
70820;DHT22;58439;51.046;13.692;2023-03-17T03:55:11;4.80;43.20
70820;DHT22;58439;51.046;13.692;2023-03-17T03:57:40;4.80;43.20
70820;DHT22;58439;51.046;13.692;2023-03-17T04:00:12;4.80;43.30
70820;DHT22;58439;51.046;13.692;2023-03-17T04:02:43;4.80;43.30
70820;DHT22;58439;51.046;13.692;2023-03-17T04:05:16;4.80;43.10
70820;DHT22;58439;51.046;13.692;2023-03-17T04:07:52;4.80;43.20
70820;DHT22;58439;51.046;13.692;2023-03-17T04:10:21;4.80;43.20
70820;DHT22;58439;51.046;13.692;2023-03-17T04:12:49;4.70;43.10
70820;DHT22;58439;51.046;13.692;2023-03-17T04:15:17;4.80;43.20
70820;DHT22;58439;51.046;13.692;2023-03-17T04:17:46;4.80;43.40
70820;DHT22;58439;51.046;13.692;2023-03-17T04:20:14;4.70;43.30
70820;DHT22;58439;51.046;13.692;2023-03-17T04:22:43;4.70;43.50
70820;DHT22;58439;51.046;13.692;2023-03-17T04:25:13;4.70;43.50
70820;DHT22;58439;51.046;13.692;2023-03-17T04:27:41;4.70;43.50
70820;DHT22;58439;51.046;13.692;2023-03-17T04:30:11;4.70;43.50
70820;DHT22;58439;51.046;13.692;2023-03-17T04:32:44;4.70;43.60
70820;DHT22;58439;51.046;13.692;2023-03-17T04:35:18;4.60;43.70
70820;DHT22;58439;51.046;13.692;2023-03-17T04:37:48;4.60;43.70
70820;DHT22;58439;51.046;13.692;2023-03-17T04:40:17;4.60;43.70
70820;DHT22;58439;51.046;13.692;2023-03-17T04:42:45;4.60;43.80
70820;DHT22;58439;51.046;13.692;2023-03-17T04:45:15;4.60;43.90
70820;DHT22;58439;51.046;13.692;2023-03-17T04:47:43;4.50;43.80
70820;DHT22;58439;51.046;13.692;2023-03-17T04:50:12;4.50;44.00
70820;DHT22;58439;51.046;13.692;2023-03-17T04:52:40;4.50;44.20
70820;DHT22;58439;51.046;13.692;2023-03-17T04:55:08;4.40;44.10
70820;DHT22;58439;51.046;13.692;2023-03-17T04:57:36;4.40;44.20
70820;DHT22;58439;51.046;13.692;2023-03-17T05:00:05;4.40;44.40
70820;DHT22;58439;51.046;13.692;2023-03-17T05:02:34;4.40;44.40
70820;DHT22;58439;51.046;13.692;2023-03-17T05:05:07;4.40;44.50
70820;DHT22;58439;51.046;13.692;2023-03-17T05:07:36;4.40;44.60
70820;DHT22;58439;51.046;13.692;2023-03-17T05:10:03;4.40;44.40
70820;DHT22;58439;51.046;13.692;2023-03-17T05:12:32;4.40;44.30
70820;DHT22;58439;51.046;13.692;2023-03-17T05:14:59;4.40;44.10
70820;DHT22;58439;51.046;13.692;2023-03-17T05:17:52;4.50;44.10
70820;DHT22;58439;51.046;13.692;2023-03-17T05:20:19;4.50;44.00
70820;DHT22;58439;51.046;13.692;2023-03-17T05:22:46;4.50;44.00
70820;DHT22;58439;51.046;13.692;2023-03-17T05:25:14;4.50;44.00
70820;DHT22;58439;51.046;13.692;2023-03-17T05:27:42;4.50;43.90
70820;DHT22;58439;51.046;13.692;2023-03-17T05:30:10;4.50;43.80
70820;DHT22;58439;51.046;13.692;2023-03-17T05:32:37;4.50;43.80
70820;DHT22;58439;51.046;13.692;2023-03-17T05:35:05;4.50;44.00
70820;DHT22;58439;51.046;13.692;2023-03-17T05:37:33;4.50;44.00
70820;DHT22;58439;51.046;13.692;2023-03-17T05:40:03;4.50;43.80
70820;DHT22;58439;51.046;13.692;2023-03-17T05:42:31;4.60;43.90
70820;DHT22;58439;51.046;13.692;2023-03-17T05:44:58;4.60;43.90
70820;DHT22;58439;51.046;13.692;2023-03-17T05:47:25;4.60;43.90
70820;DHT22;58439;51.046;13.692;2023-03-17T05:49:52;4.60;44.00
70820;DHT22;58439;51.046;13.692;2023-03-17T05:52:19;4.60;45.10
70820;DHT22;58439;51.046;13.692;2023-03-17T05:54:46;4.60;44.00
70820;DHT22;58439;51.046;13.692;2023-03-17T06:01:22;4.60;44.10
70820;DHT22;58439;51.046;13.692;2023-03-17T06:03:49;4.60;44.00
70820;DHT22;58439;51.046;13.692;2023-03-17T06:06:19;4.60;43.90
70820;DHT22;58439;51.046;13.692;2023-03-17T06:08:46;4.60;43.90
70820;DHT22;58439;51.046;13.692;2023-03-17T06:11:45;4.60;43.80
70820;DHT22;58439;51.046;13.692;2023-03-17T06:15:07;4.60;44.00
70820;DHT22;58439;51.046;13.692;2023-03-17T06:17:36;4.70;44.00
70820;DHT22;58439;51.046;13.692;2023-03-17T06:20:05;4.70;43.80
70820;DHT22;58439;51.046;13.692;2023-03-17T06:22:32;4.70;43.80
70820;DHT22;58439;51.046;13.692;2023-03-17T06:25:00;4.70;43.70
70820;DHT22;58439;51.046;13.692;2023-03-17T06:27:27;4.80;43.80
70820;DHT22;58439;51.046;13.692;2023-03-17T06:29:54;4.80;43.70
70820;DHT22;58439;51.046;13.692;2023-03-17T06:32:23;4.90;43.60
70820;DHT22;58439;51.046;13.692;2023-03-17T06:34:53;4.90;43.50
70820;DHT22;58439;51.046;13.692;2023-03-17T06:37:20;4.90;43.40
70820;DHT22;58439;51.046;13.692;2023-03-17T06:39:48;5.00;43.40
70820;DHT22;58439;51.046;13.692;2023-03-17T06:42:15;5.10;43.30
70820;DHT22;58439;51.046;13.692;2023-03-17T06:44:43;5.20;43.20
70820;DHT22;58439;51.046;13.692;2023-03-17T06:47:12;5.20;42.80
70820;DHT22;58439;51.046;13.692;2023-03-17T06:54:36;5.40;42.60
70820;DHT22;58439;51.046;13.692;2023-03-17T06:57:04;5.60;42.30
70820;DHT22;58439;51.046;13.692;2023-03-17T06:59:32;5.60;42.00
70820;DHT22;58439;51.046;13.692;2023-03-17T07:02:01;5.70;41.60
70820;DHT22;58439;51.046;13.692;2023-03-17T07:04:28;5.80;41.40
70820;DHT22;58439;51.046;13.692;2023-03-17T07:06:55;5.90;41.10
70820;DHT22;58439;51.046;13.692;2023-03-17T07:09:23;5.90;40.90
70820;DHT22;58439;51.046;13.692;2023-03-17T07:11:50;6.00;40.70
70820;DHT22;58439;51.046;13.692;2023-03-17T07:14:17;6.10;40.60
70820;DHT22;58439;51.046;13.692;2023-03-17T07:16:45;6.20;40.40
70820;DHT22;58439;51.046;13.692;2023-03-17T07:19:14;6.30;40.20
70820;DHT22;58439;51.046;13.692;2023-03-17T07:21:41;6.40;39.90
70820;DHT22;58439;51.046;13.692;2023-03-17T07:24:11;6.60;39.70
70820;DHT22;58439;51.046;13.692;2023-03-17T07:26:41;6.70;39.50
70820;DHT22;58439;51.046;13.692;2023-03-17T07:29:08;6.80;38.90
70820;DHT22;58439;51.046;13.692;2023-03-17T07:31:35;6.90;38.90
70820;DHT22;58439;51.046;13.692;2023-03-17T07:34:07;7.10;38.40
70820;DHT22;58439;51.046;13.692;2023-03-17T07:36:35;7.10;38.30
70820;DHT22;58439;51.046;13.692;2023-03-17T07:39:03;7.10;38.10
70820;DHT22;58439;51.046;13.692;2023-03-17T07:41:31;7.10;38.50
70820;DHT22;58439;51.046;13.692;2023-03-17T07:43:58;7.10;38.10
70820;DHT22;58439;51.046;13.692;2023-03-17T07:46:26;7.00;38.20
70820;DHT22;58439;51.046;13.692;2023-03-17T07:48:53;6.90;38.50
70820;DHT22;58439;51.046;13.692;2023-03-17T07:51:21;6.80;38.50
70820;DHT22;58439;51.046;13.692;2023-03-17T07:53:52;6.80;38.50
70820;DHT22;58439;51.046;13.692;2023-03-17T07:56:21;6.80;38.60
70820;DHT22;58439;51.046;13.692;2023-03-17T07:58:49;6.80;38.60
70820;DHT22;58439;51.046;13.692;2023-03-17T08:01:16;6.80;38.70
70820;DHT22;58439;51.046;13.692;2023-03-17T08:03:44;6.90;39.00
70820;DHT22;58439;51.046;13.692;2023-03-17T08:06:11;7.00;38.80
70820;DHT22;58439;51.046;13.692;2023-03-17T08:08:38;7.00;38.60
70820;DHT22;58439;51.046;13.692;2023-03-17T08:11:05;7.10;38.60
70820;DHT22;58439;51.046;13.692;2023-03-17T08:13:33;7.10;38.60
70820;DHT22;58439;51.046;13.692;2023-03-17T08:16:01;7.30;38.50
70820;DHT22;58439;51.046;13.692;2023-03-17T08:18:29;7.50;37.90
70820;DHT22;58439;51.046;13.692;2023-03-17T08:20:57;7.70;37.70
70820;DHT22;58439;51.046;13.692;2023-03-17T08:23:24;7.80;37.60
70820;DHT22;58439;51.046;13.692;2023-03-17T08:25:56;7.90;37.10
70820;DHT22;58439;51.046;13.692;2023-03-17T08:28:24;8.00;36.60
70820;DHT22;58439;51.046;13.692;2023-03-17T08:30:53;8.00;35.70
70820;DHT22;58439;51.046;13.692;2023-03-17T08:33:21;8.10;35.20
70820;DHT22;58439;51.046;13.692;2023-03-17T08:35:48;8.10;34.90
70820;DHT22;58439;51.046;13.692;2023-03-17T08:38:16;8.00;34.70
70820;DHT22;58439;51.046;13.692;2023-03-17T08:40:43;8.10;35.00
70820;DHT22;58439;51.046;13.692;2023-03-17T08:43:10;8.20;34.80
70820;DHT22;58439;51.046;13.692;2023-03-17T08:45:38;8.30;34.90
70820;DHT22;58439;51.046;13.692;2023-03-17T08:48:05;8.40;34.50
70820;DHT22;58439;51.046;13.692;2023-03-17T08:50:32;8.40;34.50
70820;DHT22;58439;51.046;13.692;2023-03-17T08:53:01;8.40;34.40
70820;DHT22;58439;51.046;13.692;2023-03-17T08:55:28;8.50;34.30
70820;DHT22;58439;51.046;13.692;2023-03-17T08:57:55;8.50;34.20
70820;DHT22;58439;51.046;13.692;2023-03-17T09:00:23;8.60;33.70
70820;DHT22;58439;51.046;13.692;2023-03-17T09:02:50;8.60;33.40
70820;DHT22;58439;51.046;13.692;2023-03-17T09:05:18;8.60;33.70
70820;DHT22;58439;51.046;13.692;2023-03-17T09:07:46;8.60;33.60
70820;DHT22;58439;51.046;13.692;2023-03-17T09:10:15;8.70;34.90
70820;DHT22;58439;51.046;13.692;2023-03-17T09:12:50;8.80;33.70
70820;DHT22;58439;51.046;13.692;2023-03-17T09:15:19;8.90;34.00
70820;DHT22;58439;51.046;13.692;2023-03-17T09:17:47;9.00;33.90
70820;DHT22;58439;51.046;13.692;2023-03-17T09:20:15;9.10;33.50
70820;DHT22;58439;51.046;13.692;2023-03-17T09:22:43;9.30;33.30
70820;DHT22;58439;51.046;13.692;2023-03-17T09:25:10;9.40;33.20
70820;DHT22;58439;51.046;13.692;2023-03-17T09:27:38;9.50;33.00
70820;DHT22;58439;51.046;13.692;2023-03-17T09:30:06;9.60;32.70
70820;DHT22;58439;51.046;13.692;2023-03-17T09:32:38;9.70;32.50
70820;DHT22;58439;51.046;13.692;2023-03-17T09:35:09;9.80;32.20
70820;DHT22;58439;51.046;13.692;2023-03-17T09:37:37;9.90;31.50
70820;DHT22;58439;51.046;13.692;2023-03-17T09:40:05;10.00;31.50
70820;DHT22;58439;51.046;13.692;2023-03-17T09:42:52;10.10;31.50
70820;DHT22;58439;51.046;13.692;2023-03-17T09:45:37;10.10;30.60
70820;DHT22;58439;51.046;13.692;2023-03-17T09:48:43;10.10;30.20
70820;DHT22;58439;51.046;13.692;2023-03-17T09:51:31;10.10;30.40
70820;DHT22;58439;51.046;13.692;2023-03-17T09:54:01;10.30;30.20
70820;DHT22;58439;51.046;13.692;2023-03-17T09:56:42;10.40;30.00
70820;DHT22;58439;51.046;13.692;2023-03-17T09:59:37;10.50;30.10
70820;DHT22;58439;51.046;13.692;2023-03-17T10:04:51;10.60;29.80
70820;DHT22;58439;51.046;13.692;2023-03-17T10:07:26;10.70;29.80
70820;DHT22;58439;51.046;13.692;2023-03-17T10:22:25;11.20;29.00
70820;DHT22;58439;51.046;13.692;2023-03-17T10:25:01;11.30;29.10
70820;DHT22;58439;51.046;13.692;2023-03-17T10:27:36;11.30;28.80
70820;DHT22;58439;51.046;13.692;2023-03-17T10:30:15;11.40;28.60
70820;DHT22;58439;51.046;13.692;2023-03-17T10:32:44;11.40;28.50
70820;DHT22;58439;51.046;13.692;2023-03-17T10:35:14;11.30;28.50
70820;DHT22;58439;51.046;13.692;2023-03-17T10:37:45;11.30;28.30
70820;DHT22;58439;51.046;13.692;2023-03-17T10:40:22;11.40;28.40
70820;DHT22;58439;51.046;13.692;2023-03-17T10:43:00;11.50;28.40
70820;DHT22;58439;51.046;13.692;2023-03-17T10:45:37;12.00;28.10
70820;DHT22;58439;51.046;13.692;2023-03-17T10:48:16;12.90;27.20
70820;DHT22;58439;51.046;13.692;2023-03-17T10:50:45;14.00;26.00
70820;DHT22;58439;51.046;13.692;2023-03-17T10:53:24;14.80;25.10
70820;DHT22;58439;51.046;13.692;2023-03-17T10:55:58;15.20;24.30
70820;DHT22;58439;51.046;13.692;2023-03-17T10:58:47;15.40;23.90
70820;DHT22;58439;51.046;13.692;2023-03-17T11:07:14;16.00;22.90
70820;DHT22;58439;51.046;13.692;2023-03-17T11:09:48;16.00;23.00
70820;DHT22;58439;51.046;13.692;2023-03-17T11:12:26;15.70;23.00
70820;DHT22;58439;51.046;13.692;2023-03-17T11:15:03;15.40;23.20
70820;DHT22;58439;51.046;13.692;2023-03-17T11:20:49;15.00;24.40
70820;DHT22;58439;51.046;13.692;2023-03-17T11:23:50;14.80;24.00
70820;DHT22;58439;51.046;13.692;2023-03-17T11:26:44;15.10;24.00
70820;DHT22;58439;51.046;13.692;2023-03-17T11:29:32;15.50;23.40
70820;DHT22;58439;51.046;13.692;2023-03-17T11:32:29;15.90;22.90
70820;DHT22;58439;51.046;13.692;2023-03-17T11:38:36;16.80;21.60
70820;DHT22;58439;51.046;13.692;2023-03-17T11:47:14;17.90;20.90
70820;DHT22;58439;51.046;13.692;2023-03-17T11:52:59;18.50;20.70
70820;DHT22;58439;51.046;13.692;2023-03-17T11:55:56;18.70;20.50
70820;DHT22;58439;51.046;13.692;2023-03-17T11:58:42;18.50;19.80
70820;DHT22;58439;51.046;13.692;2023-03-17T12:01:27;18.30;20.20
70820;DHT22;58439;51.046;13.692;2023-03-17T12:04:34;18.40;20.50
70820;DHT22;58439;51.046;13.692;2023-03-17T12:07:29;18.50;20.50
70820;DHT22;58439;51.046;13.692;2023-03-17T12:10:15;18.50;20.10
70820;DHT22;58439;51.046;13.692;2023-03-17T12:12:53;18.30;20.30
70820;DHT22;58439;51.046;13.692;2023-03-17T12:15:46;18.10;20.60
70820;DHT22;58439;51.046;13.692;2023-03-17T12:18:20;18.00;20.90
70820;DHT22;58439;51.046;13.692;2023-03-17T12:21:10;18.20;20.30
70820;DHT22;58439;51.046;13.692;2023-03-17T12:23:51;18.10;20.50
70820;DHT22;58439;51.046;13.692;2023-03-17T12:29:23;18.50;20.50
70820;DHT22;58439;51.046;13.692;2023-03-17T12:32:02;18.70;20.40
70820;DHT22;58439;51.046;13.692;2023-03-17T12:34:39;18.70;19.90
70820;DHT22;58439;51.046;13.692;2023-03-17T12:37:14;18.90;20.10
70820;DHT22;58439;51.046;13.692;2023-03-17T12:39:50;19.00;20.20
70820;DHT22;58439;51.046;13.692;2023-03-17T12:45:39;19.20;20.20
70820;DHT22;58439;51.046;13.692;2023-03-17T12:51:41;18.70;19.90
70820;DHT22;58439;51.046;13.692;2023-03-17T12:54:37;18.10;20.90
70820;DHT22;58439;51.046;13.692;2023-03-17T12:57:59;17.80;21.10
70820;DHT22;58439;51.046;13.692;2023-03-17T13:00:23;17.70;21.60
70820;DHT22;58439;51.046;13.692;2023-03-17T13:03:21;17.40;21.80
70820;DHT22;58439;51.046;13.692;2023-03-17T13:05:57;17.20;22.10
70820;DHT22;58439;51.046;13.692;2023-03-17T13:08:36;17.10;21.90
70820;DHT22;58439;51.046;13.692;2023-03-17T13:11:45;16.90;21.80
70820;DHT22;58439;51.046;13.692;2023-03-17T13:14:47;16.50;22.10
70820;DHT22;58439;51.046;13.692;2023-03-17T13:23:09;15.50;23.70
70820;DHT22;58439;51.046;13.692;2023-03-17T13:33:21;15.60;23.90
70820;DHT22;58439;51.046;13.692;2023-03-17T13:36:08;15.60;23.80
70820;DHT22;58439;51.046;13.692;2023-03-17T13:45:18;16.00;23.70
70820;DHT22;58439;51.046;13.692;2023-03-17T13:54:06;16.20;23.60
70820;DHT22;58439;51.046;13.692;2023-03-17T14:00:46;16.60;23.30
70820;DHT22;58439;51.046;13.692;2023-03-17T14:03:41;17.00;23.10
70820;DHT22;58439;51.046;13.692;2023-03-17T14:06:16;17.20;22.70
70820;DHT22;58439;51.046;13.692;2023-03-17T14:08:51;17.20;22.90
70820;DHT22;58439;51.046;13.692;2023-03-17T14:11:40;17.10;23.00
70820;DHT22;58439;51.046;13.692;2023-03-17T14:17:10;16.90;23.50
70820;DHT22;58439;51.046;13.692;2023-03-17T14:19:59;16.80;23.30
70820;DHT22;58439;51.046;13.692;2023-03-17T14:22:51;16.80;23.60
70820;DHT22;58439;51.046;13.692;2023-03-17T14:25:38;16.80;23.60
70820;DHT22;58439;51.046;13.692;2023-03-17T14:28:13;16.80;23.80
70820;DHT22;58439;51.046;13.692;2023-03-17T14:30:51;16.90;23.60
70820;DHT22;58439;51.046;13.692;2023-03-17T14:33:25;16.90;23.40
70820;DHT22;58439;51.046;13.692;2023-03-17T14:36:00;16.80;23.50
70820;DHT22;58439;51.046;13.692;2023-03-17T14:38:30;16.60;23.50
70820;DHT22;58439;51.046;13.692;2023-03-17T14:43:41;16.50;23.80
70820;DHT22;58439;51.046;13.692;2023-03-17T14:46:22;16.40;24.00
70820;DHT22;58439;51.046;13.692;2023-03-17T14:54:24;16.50;24.00
70820;DHT22;58439;51.046;13.692;2023-03-17T14:56:56;16.60;23.90
70820;DHT22;58439;51.046;13.692;2023-03-17T14:59:38;16.60;24.20
70820;DHT22;58439;51.046;13.692;2023-03-17T15:05:04;17.80;23.40
70820;DHT22;58439;51.046;13.692;2023-03-17T15:13:47;17.60;22.80
70820;DHT22;58439;51.046;13.692;2023-03-17T15:16:27;17.30;23.20
70820;DHT22;58439;51.046;13.692;2023-03-17T15:19:05;17.30;23.30
70820;DHT22;58439;51.046;13.692;2023-03-17T15:21:39;17.30;23.20
70820;DHT22;58439;51.046;13.692;2023-03-17T15:24:38;17.40;23.10
70820;DHT22;58439;51.046;13.692;2023-03-17T15:27:29;17.10;23.50
70820;DHT22;58439;51.046;13.692;2023-03-17T15:30:00;16.40;23.80
70820;DHT22;58439;51.046;13.692;2023-03-17T15:32:29;15.80;24.60
70820;DHT22;58439;51.046;13.692;2023-03-17T15:34:58;15.30;25.20
70820;DHT22;58439;51.046;13.692;2023-03-17T15:37:51;15.00;25.90
70820;DHT22;58439;51.046;13.692;2023-03-17T15:41:45;14.60;26.40
70820;DHT22;58439;51.046;13.692;2023-03-17T15:44:12;14.30;26.90
70820;DHT22;58439;51.046;13.692;2023-03-17T15:46:40;14.10;27.20
70820;DHT22;58439;51.046;13.692;2023-03-17T15:49:10;14.00;27.50
70820;DHT22;58439;51.046;13.692;2023-03-17T15:51:38;13.90;28.80
70820;DHT22;58439;51.046;13.692;2023-03-17T15:54:12;13.70;28.10
70820;DHT22;58439;51.046;13.692;2023-03-17T15:56:45;13.70;28.40
70820;DHT22;58439;51.046;13.692;2023-03-17T15:59:13;13.60;28.60
70820;DHT22;58439;51.046;13.692;2023-03-17T16:01:42;13.50;28.70
70820;DHT22;58439;51.046;13.692;2023-03-17T16:04:10;13.50;28.90
70820;DHT22;58439;51.046;13.692;2023-03-17T16:06:37;13.30;29.10
70820;DHT22;58439;51.046;13.692;2023-03-17T16:09:13;13.30;29.20
70820;DHT22;58439;51.046;13.692;2023-03-17T16:11:42;13.20;29.40
70820;DHT22;58439;51.046;13.692;2023-03-17T16:14:10;13.20;29.60
70820;DHT22;58439;51.046;13.692;2023-03-17T16:16:42;13.10;29.80
70820;DHT22;58439;51.046;13.692;2023-03-17T16:19:20;13.00;30.00
70820;DHT22;58439;51.046;13.692;2023-03-17T16:21:50;13.00;30.10
70820;DHT22;58439;51.046;13.692;2023-03-17T16:24:20;12.90;30.00
70820;DHT22;58439;51.046;13.692;2023-03-17T16:26:49;12.90;30.20
70820;DHT22;58439;51.046;13.692;2023-03-17T16:29:18;12.80;30.20
70820;DHT22;58439;51.046;13.692;2023-03-17T16:31:49;12.70;30.40
70820;DHT22;58439;51.046;13.692;2023-03-17T16:34:22;12.70;30.90
70820;DHT22;58439;51.046;13.692;2023-03-17T16:36:52;12.60;30.90
70820;DHT22;58439;51.046;13.692;2023-03-17T16:39:22;12.50;31.00
70820;DHT22;58439;51.046;13.692;2023-03-17T16:41:50;12.50;31.20
70820;DHT22;58439;51.046;13.692;2023-03-17T16:44:19;12.40;31.40
70820;DHT22;58439;51.046;13.692;2023-03-17T16:46:47;12.40;32.00
70820;DHT22;58439;51.046;13.692;2023-03-17T16:49:16;12.30;32.00
70820;DHT22;58439;51.046;13.692;2023-03-17T16:51:45;12.20;32.10
70820;DHT22;58439;51.046;13.692;2023-03-17T16:54:15;12.10;32.30
70820;DHT22;58439;51.046;13.692;2023-03-17T16:56:42;12.10;32.60
70820;DHT22;58439;51.046;13.692;2023-03-17T16:59:18;12.10;32.80
70820;DHT22;58439;51.046;13.692;2023-03-17T17:01:47;12.00;32.80
70820;DHT22;58439;51.046;13.692;2023-03-17T17:04:14;11.90;33.00
70820;DHT22;58439;51.046;13.692;2023-03-17T17:06:41;11.90;33.20
70820;DHT22;58439;51.046;13.692;2023-03-17T17:09:09;11.80;33.40
70820;DHT22;58439;51.046;13.692;2023-03-17T17:11:37;11.70;33.70
70820;DHT22;58439;51.046;13.692;2023-03-17T17:14:04;11.70;34.00
70820;DHT22;58439;51.046;13.692;2023-03-17T17:16:35;11.60;34.20
70820;DHT22;58439;51.046;13.692;2023-03-17T17:19:14;11.60;34.40
70820;DHT22;58439;51.046;13.692;2023-03-17T17:21:43;11.50;34.60
70820;DHT22;58439;51.046;13.692;2023-03-17T17:24:12;11.40;34.80
70820;DHT22;58439;51.046;13.692;2023-03-17T17:26:43;11.40;34.80
70820;DHT22;58439;51.046;13.692;2023-03-17T17:29:11;11.40;34.90
70820;DHT22;58439;51.046;13.692;2023-03-17T17:31:39;11.40;35.10
70820;DHT22;58439;51.046;13.692;2023-03-17T17:34:07;11.40;35.20
70820;DHT22;58439;51.046;13.692;2023-03-17T17:36:36;11.30;35.30
70820;DHT22;58439;51.046;13.692;2023-03-17T17:39:03;11.30;35.50
70820;DHT22;58439;51.046;13.692;2023-03-17T17:41:33;11.20;35.70
70820;DHT22;58439;51.046;13.692;2023-03-17T17:44:01;11.20;35.70
70820;DHT22;58439;51.046;13.692;2023-03-17T17:46:29;11.10;35.80
70820;DHT22;58439;51.046;13.692;2023-03-17T17:48:57;11.10;36.10